Time;durP1;ratioP1;P1;durP2;ratioP2;P2;SDS_P1;SDS_P2;PMS_P1;PMS_P2;Temp;Humidity;BMP_temperature;BMP_pressure;BME280_temperature;BME280_humidity;BME280_pressure;Samples;Min_cycle;Max_cycle;Signal;HPM_P1;HPM_P2
2021/06/16 00:00:39;;;;;;;1.37;0.70;;;21.40;99.90;;;;;;5049917;28;20205;-70
2021/06/16 00:03:06;;;;;;;0.87;0.63;;;21.40;99.90;;;;;;5050061;28;20484;-70
2021/06/16 00:05:32;;;;;;;1.50;1.23;;;21.30;99.90;;;;;;5051925;28;20175;-70
2021/06/16 00:07:58;;;;;;;1.00;0.80;;;21.30;99.90;;;;;;5052234;28;20830;-70
2021/06/16 00:10:29;;;;;;;0.90;0.80;;;21.30;99.90;;;;;;5053270;28;20445;-70
2021/06/16 00:12:55;;;;;;;0.87;0.73;;;21.30;99.90;;;;;;5051022;28;20433;-70
2021/06/16 00:15:27;;;;;;;0.80;0.50;;;21.30;99.90;;;;;;5050986;28;21113;-70
2021/06/16 00:17:53;;;;;;;1.20;0.90;;;21.30;99.90;;;;;;5052383;28;20464;-70
2021/06/16 00:20:19;;;;;;;0.87;0.67;;;21.30;99.90;;;;;;5051975;28;20401;-70
2021/06/16 00:22:45;;;;;;;0.80;0.60;;;21.20;99.90;;;;;;5051291;28;20191;-70
2021/06/16 00:25:11;;;;;;;0.80;0.60;;;21.20;99.90;;;;;;5052716;28;20176;-70
2021/06/16 00:27:37;;;;;;;0.90;0.70;;;21.20;99.90;;;;;;5052429;28;20279;-70
2021/06/16 00:30:07;;;;;;;0.80;0.60;;;21.20;99.90;;;;;;5052224;28;20457;-70
2021/06/16 00:32:33;;;;;;;1.70;1.20;;;21.20;99.90;;;;;;5051103;28;20464;-70
2021/06/16 00:34:58;;;;;;;1.63;0.80;;;21.20;99.90;;;;;;5052642;28;20394;-70
2021/06/16 00:37:24;;;;;;;1.00;0.60;;;21.20;99.90;;;;;;5051496;28;20544;-70
2021/06/16 00:39:50;;;;;;;1.00;0.70;;;21.20;99.90;;;;;;5039046;28;20187;-70
2021/06/16 00:42:15;;;;;;;0.90;0.80;;;21.10;99.90;;;;;;5046903;28;20675;-70
2021/06/16 00:44:41;;;;;;;0.97;0.77;;;21.10;99.90;;;;;;5052776;28;20163;-70
2021/06/16 00:47:06;;;;;;;0.80;0.60;;;21.10;99.90;;;;;;5050688;28;20198;-70
2021/06/16 00:49:32;;;;;;;1.17;0.70;;;21.10;99.90;;;;;;5052382;28;20332;-70
2021/06/16 00:51:57;;;;;;;2.10;0.83;;;21.10;99.90;;;;;;5049565;28;20202;-70
2021/06/16 00:54:23;;;;;;;1.00;0.70;;;21.10;99.90;;;;;;5051735;28;20163;-70
2021/06/16 00:56:49;;;;;;;0.80;0.60;;;21.10;99.90;;;;;;5051611;28;20191;-70
2021/06/16 00:59:14;;;;;;;1.03;0.70;;;21.00;99.90;;;;;;5052372;28;20167;-70
2021/06/16 01:01:43;;;;;;;0.80;0.67;;;21.00;99.90;;;;;;5050416;28;20243;-70
2021/06/16 01:04:22;;;;;;;0.80;0.50;;;20.90;99.90;;;;;;5050283;28;20181;-70
2021/06/16 01:06:54;;;;;;;0.80;0.60;;;20.90;99.90;;;;;;5049079;28;20445;-70
2021/06/16 01:09:31;;;;;;;1.30;1.20;;;20.90;99.90;;;;;;5052375;28;20764;-70
2021/06/16 01:12:18;;;;;;;1.77;0.70;;;20.90;99.90;;;;;;5049909;28;20441;-70
2021/06/16 01:14:48;;;;;;;0.80;0.60;;;20.80;99.90;;;;;;5052107;28;20412;-70
2021/06/16 01:17:19;;;;;;;1.33;1.23;;;20.80;99.90;;;;;;5051227;28;20460;-70
2021/06/16 01:20:03;;;;;;;0.80;0.60;;;20.80;99.90;;;;;;5052170;28;20433;-70
2021/06/16 01:22:39;;;;;;;0.80;0.60;;;20.80;99.90;;;;;;5049454;28;20575;-70
2021/06/16 01:25:09;;;;;;;1.00;0.77;;;20.70;99.90;;;;;;5050512;28;20420;-70
2021/06/16 01:27:36;;;;;;;1.00;0.90;;;20.70;99.90;;;;;;5051327;28;20812;-70
2021/06/16 01:30:05;;;;;;;1.00;0.90;;;20.70;99.90;;;;;;5051954;28;20452;-70
2021/06/16 01:32:31;;;;;;;0.87;0.60;;;20.70;99.90;;;;;;5049062;28;20802;-70
2021/06/16 01:34:57;;;;;;;1.40;0.90;;;20.70;99.90;;;;;;5083976;28;20409;-70
2021/06/16 01:37:23;;;;;;;0.90;0.70;;;20.60;99.90;;;;;;5048547;28;21055;-70
2021/06/16 01:39:49;;;;;;;1.67;1.00;;;20.60;99.90;;;;;;5051289;28;20524;-70
2021/06/16 01:42:19;;;;;;;0.90;0.60;;;20.60;99.90;;;;;;5050027;28;20232;-70
2021/06/16 01:44:46;;;;;;;0.80;0.60;;;20.60;99.90;;;;;;5051861;28;20420;-70
2021/06/16 01:47:14;;;;;;;0.80;0.50;;;20.60;99.90;;;;;;5051023;28;20449;-70
2021/06/16 01:49:40;;;;;;;0.80;0.60;;;20.50;99.90;;;;;;5051683;28;20453;-70
2021/06/16 01:52:06;;;;;;;1.00;0.80;;;20.50;99.90;;;;;;5048313;28;20429;-70
2021/06/16 01:54:33;;;;;;;1.57;0.77;;;20.50;99.90;;;;;;5051676;28;20856;-70
2021/06/16 01:57:00;;;;;;;1.30;0.80;;;20.50;99.90;;;;;;5048745;28;20449;-70
2021/06/16 01:59:26;;;;;;;1.00;0.90;;;20.40;99.90;;;;;;5050925;28;20456;-70
2021/06/16 02:01:53;;;;;;;1.00;0.80;;;20.40;99.90;;;;;;5049419;28;20435;-70
2021/06/16 02:04:19;;;;;;;1.00;0.70;;;20.40;99.90;;;;;;5051860;28;20389;-70
2021/06/16 02:06:49;;;;;;;6.40;0.90;;;20.30;99.90;;;;;;5050141;28;20961;-70
2021/06/16 02:09:18;;;;;;;0.90;0.60;;;20.30;99.90;;;;;;5049649;28;20498;-70
2021/06/16 02:11:44;;;;;;;1.10;0.70;;;20.20;99.90;;;;;;5050425;28;20513;-70
2021/06/16 02:14:13;;;;;;;0.80;0.60;;;20.20;99.90;;;;;;5050043;28;20433;-70
2021/06/16 02:16:49;;;;;;;0.80;0.70;;;20.10;99.90;;;;;;5050275;28;20430;-70
2021/06/16 02:19:18;;;;;;;0.80;0.50;;;20.10;99.90;;;;;;5051567;28;20401;-70
2021/06/16 02:21:44;;;;;;;0.80;0.60;;;20.10;99.90;;;;;;5050873;28;20448;-70
2021/06/16 02:24:12;;;;;;;0.80;0.50;;;20.10;99.90;;;;;;5049860;28;20436;-70
2021/06/16 02:26:38;;;;;;;1.00;0.90;;;20.10;99.90;;;;;;5049845;28;20453;-70
2021/06/16 02:29:06;;;;;;;0.80;0.67;;;20.10;99.90;;;;;;5051395;28;20416;-70
2021/06/16 02:31:31;;;;;;;1.10;0.80;;;20.10;99.90;;;;;;5050704;28;20460;-70
2021/06/16 02:33:57;;;;;;;0.90;0.70;;;20.10;99.90;;;;;;5049923;28;20838;-70
2021/06/16 02:36:24;;;;;;;1.00;0.90;;;20.00;99.90;;;;;;5049616;28;20207;-70
2021/06/16 02:39:09;;;;;;;1.13;0.77;;;20.00;99.90;;;;;;5047594;28;20286;-70
2021/06/16 02:41:35;;;;;;;0.80;0.60;;;20.00;99.90;;;;;;5050528;28;20412;-70
2021/06/16 02:44:03;;;;;;;0.80;0.60;;;20.00;99.90;;;;;;5051930;28;20437;-70
2021/06/16 02:46:30;;;;;;;1.10;0.70;;;20.00;99.90;;;;;;5051984;28;20505;-70
2021/06/16 02:48:57;;;;;;;1.33;0.90;;;20.00;99.90;;;;;;5054057;28;20472;-70
2021/06/16 02:51:23;;;;;;;0.90;0.70;;;19.90;99.90;;;;;;5052960;28;20465;-70
2021/06/16 02:53:49;;;;;;;1.13;0.97;;;19.90;99.90;;;;;;5052859;28;20433;-70
2021/06/16 02:56:16;;;;;;;0.90;0.70;;;19.90;99.90;;;;;;5051755;28;20260;-70
2021/06/16 02:58:45;;;;;;;5.33;2.40;;;19.90;99.90;;;;;;5054763;28;20484;-70
2021/06/16 03:01:15;;;;;;;7.73;1.33;;;19.90;99.90;;;;;;5052666;28;20997;-70
2021/06/16 03:03:43;;;;;;;1.93;1.33;;;19.90;99.90;;;;;;5054817;28;20439;-70
2021/06/16 03:06:10;;;;;;;2.40;1.47;;;19.80;99.90;;;;;;5052884;28;20463;-70
2021/06/16 03:08:37;;;;;;;1.27;1.17;;;19.80;99.90;;;;;;5053273;28;20437;-70
2021/06/16 03:11:04;;;;;;;1.23;0.80;;;19.80;99.90;;;;;;5053644;28;20980;-70
2021/06/16 03:13:31;;;;;;;0.90;0.60;;;19.80;99.90;;;;;;5053824;28;20432;-70
2021/06/16 03:15:58;;;;;;;1.00;0.80;;;19.80;99.90;;;;;;5054097;28;20478;-70
2021/06/16 03:18:25;;;;;;;1.13;1.03;;;19.80;99.90;;;;;;5054432;28;20400;-70
2021/06/16 03:20:56;;;;;;;1.43;1.07;;;19.70;99.90;;;;;;5053650;28;20449;-70
2021/06/16 03:23:23;;;;;;;1.00;0.90;;;19.70;99.90;;;;;;5053623;28;20441;-70
2021/06/16 03:25:50;;;;;;;1.30;0.93;;;19.60;99.90;;;;;;5053982;28;20796;-70
2021/06/16 03:28:18;;;;;;;1.07;0.87;;;19.60;99.90;;;;;;5053609;28;20441;-70
2021/06/16 03:30:44;;;;;;;0.90;0.77;;;19.60;99.90;;;;;;5053267;28;20460;-70
2021/06/16 03:33:12;;;;;;;0.80;0.60;;;19.60;99.90;;;;;;5052752;28;20441;-70
2021/06/16 03:35:38;;;;;;;0.90;0.67;;;19.50;99.90;;;;;;5052246;28;20522;-70
2021/06/16 03:38:04;;;;;;;1.67;1.10;;;19.50;99.90;;;;;;5053769;28;20535;-70
2021/06/16 03:40:30;;;;;;;0.90;0.80;;;19.40;99.90;;;;;;5053393;28;20448;-70
2021/06/16 03:42:57;;;;;;;0.80;0.50;;;19.40;99.90;;;;;;5052970;28;20475;-70
2021/06/16 03:45:24;;;;;;;0.90;0.80;;;19.30;99.90;;;;;;5053648;28;20409;-70
2021/06/16 03:47:55;;;;;;;0.80;0.60;;;19.40;99.90;;;;;;5053073;28;20468;-70
2021/06/16 03:50:21;;;;;;;1.10;0.70;;;19.40;99.90;;;;;;5053915;28;20519;-70
2021/06/16 03:52:47;;;;;;;1.00;0.70;;;19.40;99.90;;;;;;5051310;28;20429;-70
2021/06/16 03:55:16;;;;;;;0.80;0.60;;;19.40;99.90;;;;;;5051567;28;20433;-70
2021/06/16 03:57:42;;;;;;;0.80;0.60;;;19.40;99.90;;;;;;5052381;28;20191;-70
2021/06/16 04:00:08;;;;;;;0.90;0.60;;;19.40;99.90;;;;;;5050985;28;20499;-70
2021/06/16 04:02:35;;;;;;;0.80;0.60;;;19.40;99.90;;;;;;5050930;28;21108;-70
2021/06/16 04:05:06;;;;;;;1.27;0.77;;;19.50;99.90;;;;;;5052416;28;20441;-70
2021/06/16 04:07:32;;;;;;;1.10;0.70;;;19.50;99.90;;;;;;5050702;28;20464;-70
2021/06/16 04:09:58;;;;;;;1.60;1.07;;;19.50;99.90;;;;;;5051943;28;20461;-70
2021/06/16 04:12:24;;;;;;;1.53;1.00;;;19.60;99.90;;;;;;5052574;28;20429;-70
2021/06/16 04:14:51;;;;;;;1.10;0.77;;;19.60;99.90;;;;;;5052974;28;20406;-70
2021/06/16 04:17:18;;;;;;;0.90;0.70;;;19.60;99.90;;;;;;5052512;28;20552;-71
2021/06/16 04:19:44;;;;;;;5.50;2.40;;;19.60;99.90;;;;;;5053339;28;20886;-71
2021/06/16 04:22:10;;;;;;;1.00;0.90;;;19.60;99.90;;;;;;5048679;28;20441;-71
2021/06/16 04:24:35;;;;;;;0.90;0.77;;;19.60;99.90;;;;;;5051718;28;20798;-71
2021/06/16 04:27:01;;;;;;;1.30;0.73;;;19.60;99.90;;;;;;5052868;28;20186;-71
2021/06/16 04:29:26;;;;;;;0.80;0.80;;;19.70;99.90;;;;;;5052985;28;20171;-71
2021/06/16 04:31:52;;;;;;;2.43;1.17;;;19.70;99.90;;;;;;5050573;28;20636;-70
2021/06/16 04:34:17;;;;;;;1.03;0.70;;;19.80;99.90;;;;;;5052890;28;20174;-71
2021/06/16 04:36:43;;;;;;;0.80;0.50;;;19.80;99.90;;;;;;5050482;28;20552;-70
2021/06/16 04:39:09;;;;;;;1.93;0.70;;;19.90;99.90;;;;;;5052303;28;20167;-71
2021/06/16 04:41:35;;;;;;;0.90;0.70;;;19.90;99.90;;;;;;5050350;28;20179;-70
2021/06/16 04:44:01;;;;;;;0.80;0.60;;;19.90;99.90;;;;;;5052770;28;20182;-70
2021/06/16 04:46:26;;;;;;;1.17;1.00;;;20.00;99.90;;;;;;5051811;28;20433;-71
2021/06/16 04:48:53;;;;;;;0.90;0.70;;;20.10;99.90;;;;;;5051313;28;20187;-70
2021/06/16 04:51:18;;;;;;;1.67;1.23;;;20.10;99.90;;;;;;5051039;28;20205;-71
2021/06/16 04:53:44;;;;;;;1.47;1.20;;;20.10;99.90;;;;;;5051370;28;20430;-71
2021/06/16 04:56:09;;;;;;;0.80;0.60;;;20.20;99.90;;;;;;5052282;28;20655;-70
2021/06/16 04:58:35;;;;;;;1.23;0.87;;;20.20;99.90;;;;;;5050425;28;20187;-71
2021/06/16 05:01:01;;;;;;;1.57;1.20;;;20.30;99.90;;;;;;5050238;28;20229;-71
2021/06/16 05:03:26;;;;;;;0.97;0.90;;;20.30;99.90;;;;;;5052510;28;20586;-71
2021/06/16 05:05:52;;;;;;;1.10;1.00;;;20.30;99.90;;;;;;5050404;28;20187;-71
2021/06/16 05:08:18;;;;;;;0.93;0.80;;;20.30;99.90;;;;;;5049062;28;20663;-70
2021/06/16 05:10:43;;;;;;;1.07;0.90;;;20.40;99.90;;;;;;5052292;28;20846;-70
2021/06/16 05:13:09;;;;;;;0.90;0.70;;;20.40;99.90;;;;;;5051033;28;20179;-70
2021/06/16 05:15:34;;;;;;;1.10;0.70;;;20.50;99.90;;;;;;5051948;28;20623;-70
2021/06/16 05:18:00;;;;;;;1.67;1.10;;;20.50;99.90;;;;;;5049906;28;20203;-70
2021/06/16 05:20:26;;;;;;;0.80;0.70;;;20.60;99.90;;;;;;5052224;28;20179;-71
2021/06/16 05:22:53;;;;;;;1.60;1.00;;;20.60;99.90;;;;;;5051256;28;20278;-71
2021/06/16 05:25:18;;;;;;;5.23;1.43;;;20.70;99.90;;;;;;5051878;28;20407;-70
2021/06/16 05:27:45;;;;;;;2.40;1.83;;;20.80;99.90;;;;;;5051351;28;21032;-71
2021/06/16 05:30:11;;;;;;;1.17;1.07;;;20.90;99.90;;;;;;5050731;28;20236;-71
2021/06/16 05:32:37;;;;;;;1.27;0.87;;;21.00;99.90;;;;;;5049959;28;20957;-71
2021/06/16 05:35:04;;;;;;;1.37;1.27;;;21.00;99.90;;;;;;5051654;28;20413;-71
2021/06/16 05:37:30;;;;;;;0.80;0.60;;;21.10;99.90;;;;;;5051713;28;20709;-70
2021/06/16 05:39:55;;;;;;;1.20;0.83;;;21.20;99.90;;;;;;5051407;28;20551;-71
2021/06/16 05:42:21;;;;;;;1.00;0.90;;;21.30;99.90;;;;;;5051106;28;20179;-70
2021/06/16 05:44:46;;;;;;;1.97;1.87;;;21.30;99.90;;;;;;5051817;28;20167;-71
2021/06/16 05:47:12;;;;;;;1.10;1.00;;;21.40;99.90;;;;;;5043243;28;20660;-71
2021/06/16 05:49:37;;;;;;;1.53;1.40;;;21.40;99.90;;;;;;5031745;28;20282;-71
2021/06/16 05:52:03;;;;;;;1.00;0.80;;;21.50;99.90;;;;;;5038808;28;20186;-71
2021/06/16 05:54:29;;;;;;;1.20;1.03;;;21.60;99.90;;;;;;5050917;28;20180;-71
2021/06/16 05:56:54;;;;;;;1.00;0.83;;;21.70;99.90;;;;;;5051405;28;20428;-71
2021/06/16 05:59:20;;;;;;;1.30;0.80;;;21.80;99.90;;;;;;5051806;28;20523;-71
2021/06/16 06:01:45;;;;;;;3.53;1.50;;;21.80;99.90;;;;;;5048818;28;20254;-71
2021/06/16 06:04:11;;;;;;;1.17;0.83;;;21.80;99.90;;;;;;5051739;28;20160;-70
2021/06/16 06:06:37;;;;;;;0.80;0.60;;;21.90;99.90;;;;;;5050659;28;20198;-71
2021/06/16 06:09:08;;;;;;;0.90;0.80;;;22.00;99.90;;;;;;5049801;28;20650;-71
2021/06/16 06:11:34;;;;;;;2.03;1.77;;;22.00;99.90;;;;;;5047828;28;20582;-71
2021/06/16 06:14:01;;;;;;;1.00;0.90;;;22.20;99.90;;;;;;5051640;28;20401;-71
2021/06/16 06:16:27;;;;;;;1.13;1.03;;;22.40;99.90;;;;;;5050688;28;20449;-71
2021/06/16 06:18:52;;;;;;;2.80;1.00;;;22.40;99.90;;;;;;5052977;28;20429;-70
2021/06/16 06:21:18;;;;;;;2.07;1.37;;;22.60;99.90;;;;;;5054601;28;20171;-70
2021/06/16 06:23:43;;;;;;;1.00;0.87;;;22.60;99.90;;;;;;5055534;28;20592;-70
2021/06/16 06:26:09;;;;;;;1.20;1.00;;;22.60;99.90;;;;;;5055161;28;20213;-71
2021/06/16 06:28:36;;;;;;;0.90;0.70;;;22.60;99.90;;;;;;5054667;28;20187;-71
2021/06/16 06:31:03;;;;;;;1.03;0.73;;;22.70;99.90;;;;;;5055381;28;20242;-71
2021/06/16 06:33:28;;;;;;;1.37;1.10;;;22.90;99.90;;;;;;5053328;28;20551;-70
2021/06/16 06:35:54;;;;;;;1.67;1.20;;;23.10;99.90;;;;;;5054929;28;20488;-70
2021/06/16 06:38:19;;;;;;;1.10;1.00;;;23.20;99.90;;;;;;5053855;28;20611;-71
2021/06/16 06:40:45;;;;;;;1.07;0.83;;;23.50;99.90;;;;;;5053210;28;20320;-71
2021/06/16 06:43:10;;;;;;;1.00;0.90;;;23.70;99.90;;;;;;5054207;28;20516;-71
2021/06/16 06:45:36;;;;;;;1.07;0.93;;;23.90;99.90;;;;;;5054763;28;20244;-71
2021/06/16 06:48:02;;;;;;;3.07;1.50;;;24.10;99.90;;;;;;5052766;28;20199;-71
2021/06/16 06:50:27;;;;;;;0.90;0.67;;;24.10;99.90;;;;;;5053845;28;20205;-71
2021/06/16 06:52:53;;;;;;;2.80;1.60;;;24.40;99.90;;;;;;5052807;28;20194;-70
2021/06/16 06:55:19;;;;;;;1.20;0.90;;;24.50;99.90;;;;;;5050890;28;20542;-70
2021/06/16 06:57:45;;;;;;;1.60;1.17;;;24.70;99.90;;;;;;5052958;28;20826;-70
2021/06/16 07:00:12;;;;;;;1.57;0.97;;;24.70;99.90;;;;;;5054435;28;20179;-71
2021/06/16 07:02:38;;;;;;;1.33;0.90;;;24.90;99.90;;;;;;5053661;28;20436;-71
2021/06/16 07:05:05;;;;;;;1.93;1.83;;;25.10;99.90;;;;;;5053847;28;21057;-71
2021/06/16 07:07:30;;;;;;;1.10;1.00;;;25.20;99.90;;;;;;5052507;28;20495;-72
2021/06/16 07:09:56;;;;;;;2.13;1.83;;;25.50;99.90;;;;;;5056052;28;20461;-76
2021/06/16 07:12:22;;;;;;;0.93;0.77;;;25.60;99.90;;;;;;5053673;28;20224;-73
2021/06/16 07:14:48;;;;;;;1.83;1.47;;;25.70;99.90;;;;;;5053863;28;20258;-73
2021/06/16 07:17:13;;;;;;;1.10;0.90;;;25.80;99.90;;;;;;5054002;28;20601;-73
2021/06/16 07:19:39;;;;;;;1.63;0.90;;;26.00;99.90;;;;;;5052820;28;20167;-73
2021/06/16 07:22:05;;;;;;;1.30;1.20;;;26.30;99.90;;;;;;5054253;28;20232;-73
2021/06/16 07:24:31;;;;;;;1.30;1.20;;;26.60;99.90;;;;;;5051956;28;20171;-73
2021/06/16 07:26:56;;;;;;;1.10;0.90;;;26.80;99.90;;;;;;5053527;28;20471;-73
2021/06/16 07:29:22;;;;;;;1.33;1.23;;;27.00;99.90;;;;;;5053224;28;20178;-73
2021/06/16 07:31:49;;;;;;;1.10;1.00;;;27.40;99.90;;;;;;5053311;28;20540;-75
2021/06/16 07:34:15;;;;;;;1.10;0.93;;;27.60;99.90;;;;;;5053921;28;20417;-73
2021/06/16 07:36:40;;;;;;;1.07;0.97;;;27.70;99.90;;;;;;5053747;28;20444;-74
2021/06/16 07:39:06;;;;;;;1.77;1.10;;;27.80;99.90;;;;;;5054043;28;20914;-73
2021/06/16 07:41:32;;;;;;;1.30;1.20;;;28.00;99.90;;;;;;5053732;28;20182;-74
2021/06/16 07:43:58;;;;;;;1.73;1.63;;;28.20;99.90;;;;;;5053712;28;20448;-74
2021/06/16 07:46:23;;;;;;;1.57;1.10;;;28.30;99.90;;;;;;5053613;28;20853;-73
2021/06/16 07:48:50;;;;;;;0.93;0.83;;;28.50;99.90;;;;;;5052311;28;20793;-73
2021/06/16 07:51:17;;;;;;;1.50;1.40;;;28.60;99.90;;;;;;5053251;28;20249;-73
2021/06/16 07:53:42;;;;;;;1.57;1.03;;;28.70;99.90;;;;;;5053315;28;20455;-74
2021/06/16 07:56:08;;;;;;;1.73;1.43;;;29.00;99.90;;;;;;5052974;28;20437;-73
2021/06/16 07:58:34;;;;;;;1.57;1.30;;;29.10;99.90;;;;;;5053391;28;20520;-73
2021/06/16 08:00:59;;;;;;;2.03;1.83;;;29.40;99.90;;;;;;5053127;28;20187;-74
2021/06/16 08:03:25;;;;;;;1.20;1.10;;;29.40;99.90;;;;;;5052003;28;20585;-73
2021/06/16 08:05:51;;;;;;;1.50;1.40;;;29.70;99.90;;;;;;5052607;28;20624;-74
2021/06/16 08:08:17;;;;;;;1.83;1.43;;;29.80;99.90;;;;;;5053463;28;20171;-73
2021/06/16 08:10:43;;;;;;;1.40;1.30;;;29.80;99.90;;;;;;5053405;28;20191;-72
2021/06/16 08:13:09;;;;;;;1.17;1.07;;;30.00;99.90;;;;;;5053329;28;20417;-73
2021/06/16 08:15:35;;;;;;;2.93;1.93;;;30.10;99.90;;;;;;5051047;28;20258;-76
2021/06/16 08:18:02;;;;;;;1.40;1.30;;;30.30;99.90;;;;;;5053961;28;20255;-78
2021/06/16 08:20:28;;;;;;;2.90;1.57;;;30.50;99.90;;;;;;5054677;28;20504;-77
2021/06/16 08:22:53;;;;;;;2.10;1.90;;;30.60;99.90;;;;;;5058191;28;20467;-78
2021/06/16 08:25:19;;;;;;;1.30;1.20;;;30.80;99.90;;;;;;5058913;28;20167;-79
2021/06/16 08:27:45;;;;;;;2.13;1.73;;;31.00;99.90;;;;;;5053502;28;20203;-79
2021/06/16 08:30:13;;;;;;;1.43;1.33;;;31.40;99.90;;;;;;5088479;28;20199;-80
2021/06/16 08:32:39;;;;;;;1.43;1.33;;;31.50;99.90;;;;;;5055625;28;20517;-79
2021/06/16 08:35:05;;;;;;;1.53;1.43;;;31.90;99.90;;;;;;5056513;28;20429;-79
2021/06/16 08:37:30;;;;;;;1.93;1.63;;;31.90;99.90;;;;;;5057919;28;20442;-80
2021/06/16 08:39:56;;;;;;;2.70;2.50;;;31.90;99.90;;;;;;5060285;28;20245;-80
2021/06/16 08:42:22;;;;;;;3.20;1.57;;;32.40;99.90;;;;;;5057114;28;20174;-78
2021/06/16 08:44:55;;;;;;;2.20;1.77;;;32.60;98.80;;;;;;5056555;28;20209;-79
2021/06/16 08:47:23;;;;;;;1.23;1.13;;;32.50;97.40;;;;;;5055771;28;20201;-80
2021/06/16 08:49:49;;;;;;;3.47;1.60;;;32.60;96.40;;;;;;5056280;28;20460;-78
2021/06/16 08:52:15;;;;;;;2.00;1.87;;;33.00;98.00;;;;;;5055787;28;20918;-77
2021/06/16 08:54:41;;;;;;;1.60;1.50;;;33.10;94.30;;;;;;5053178;28;20413;-78
2021/06/16 08:57:06;;;;;;;1.63;1.53;;;32.90;95.70;;;;;;5052648;28;20448;-78
2021/06/16 08:59:33;;;;;;;2.03;1.70;;;32.70;93.70;;;;;;5055086;28;20199;-79
2021/06/16 09:01:58;;;;;;;1.33;1.23;;;32.60;95.00;;;;;;5055449;28;20193;-78
2021/06/16 09:04:43;;;;;;;2.40;1.57;;;32.40;94.80;;;;;;5051167;28;20434;-78
2021/06/16 09:07:19;;;;;;;2.00;1.90;;;32.50;96.00;;;;;;5052315;28;20233;-79
2021/06/16 09:09:47;;;;;;;2.23;2.03;;;32.60;95.30;;;;;;5042252;28;20453;-79
2021/06/16 09:12:18;;;;;;;1.70;1.60;;;32.80;98.10;;;;;;5052540;28;20417;-78
2021/06/16 09:14:53;;;;;;;1.67;1.57;;;33.30;96.10;;;;;;5055022;28;20421;-78
2021/06/16 09:17:22;;;;;;;2.33;1.80;;;33.40;94.20;;;;;;5058529;28;20434;-81
2021/06/16 09:19:56;;;;;;;1.70;1.40;;;33.60;94.50;;;;;;5059366;28;20437;-78
2021/06/16 09:22:30;;;;;;;1.70;1.60;;;33.70;94.70;;;;;;5052227;28;20466;-78
2021/06/16 09:24:57;;;;;;;1.67;1.53;;;33.90;92.60;;;;;;5050588;28;20422;-78
2021/06/16 09:27:48;;;;;;;1.97;1.77;;;34.10;94.00;;;;;;5056192;28;20444;-79
2021/06/16 09:30:35;;;;;;;2.40;1.73;;;34.50;93.00;;;;;;5054283;28;20489;-79
2021/06/16 09:33:09;;;;;;;1.97;1.87;;;34.40;90.40;;;;;;5047875;28;20421;-78
2021/06/16 09:35:38;;;;;;;1.60;1.50;;;34.60;91.30;;;;;;5053611;28;20420;-78
2021/06/16 09:38:13;;;;;;;2.07;1.90;;;34.60;85.50;;;;;;5052394;28;20436;-78
2021/06/16 09:40:44;;;;;;;1.80;1.70;;;34.60;83.40;;;;;;5050291;28;20891;-77
2021/06/16 09:43:15;;;;;;;2.03;1.80;;;34.90;88.70;;;;;;5052104;28;20508;-79
2021/06/16 09:45:44;;;;;;;2.20;2.00;;;34.90;85.80;;;;;;5054489;28;20417;-79
2021/06/16 09:48:35;;;;;;;1.80;1.70;;;35.20;88.60;;;;;;5055243;28;20532;-78
2021/06/16 09:51:19;;;;;;;1.80;1.50;;;35.80;89.50;;;;;;5051601;28;20461;-77
2021/06/16 09:54:11;;;;;;;1.73;1.63;;;35.80;79.50;;;;;;5060753;28;20413;-80
2021/06/16 09:56:38;;;;;;;1.77;1.67;;;36.00;75.50;;;;;;5059945;28;20536;-78
2021/06/16 09:59:04;;;;;;;1.40;1.30;;;36.20;79.10;;;;;;5062810;28;20488;-79
2021/06/16 10:01:51;;;;;;;1.97;1.87;;;35.90;73.30;;;;;;5059687;28;20413;-78
2021/06/16 10:04:36;;;;;;;2.90;2.70;;;35.90;72.10;;;;;;5064904;28;20409;-80
2021/06/16 10:07:11;;;;;;;1.60;1.50;;;36.50;71.20;;;;;;5096561;28;20444;-79
2021/06/16 10:09:38;;;;;;;2.37;2.17;;;36.80;72.50;;;;;;5076385;28;20418;-79
2021/06/16 10:12:05;;;;;;;1.50;1.33;;;37.00;72.70;;;;;;5061738;28;20413;-78
2021/06/16 10:14:31;;;;;;;1.37;1.27;;;37.00;67.50;;;;;;5064542;28;20427;-79
2021/06/16 10:16:57;;;;;;;2.00;1.80;;;37.00;67.70;;;;;;5061751;28;20436;-79
2021/06/16 10:19:23;;;;;;;2.10;1.87;;;37.10;65.70;;;;;;5060816;28;20442;-79
2021/06/16 10:21:49;;;;;;;1.70;1.60;;;37.40;65.50;;;;;;5061522;28;20658;-79
2021/06/16 10:24:15;;;;;;;1.57;1.40;;;37.60;65.10;;;;;;5060789;28;20417;-78
2021/06/16 10:26:42;;;;;;;1.50;1.40;;;38.00;68.10;;;;;;5060662;28;20514;-77
2021/06/16 10:29:12;;;;;;;2.50;2.00;;;38.10;70.40;;;;;;5060052;28;20523;-78
2021/06/16 10:31:40;;;;;;;1.80;1.70;;;38.10;60.50;;;;;;5059540;28;20457;-78
2021/06/16 10:34:06;;;;;;;1.47;1.37;;;38.10;62.70;;;;;;5060966;28;20395;-79
2021/06/16 10:36:32;;;;;;;1.80;1.70;;;37.90;65.00;;;;;;5062690;28;20984;-79
2021/06/16 10:39:00;;;;;;;4.80;2.60;;;37.60;66.00;;;;;;5061893;28;20417;-78
2021/06/16 10:41:47;;;;;;;1.33;1.23;;;37.50;64.80;;;;;;5062661;28;20253;-79
2021/06/16 10:44:19;;;;;;;2.37;2.17;;;37.10;63.90;;;;;;5056102;28;20460;-79
2021/06/16 10:46:50;;;;;;;4.23;2.07;;;37.20;66.10;;;;;;5063619;28;20432;-78
2021/06/16 10:49:50;;;;;;;2.23;1.77;;;37.40;68.40;;;;;;5064714;28;20480;-79
2021/06/16 10:52:18;;;;;;;1.70;1.60;;;37.40;64.00;;;;;;5097581;28;20409;-78
2021/06/16 10:54:56;;;;;;;1.93;1.77;;;37.80;67.50;;;;;;5063064;28;20418;-79
2021/06/16 10:57:22;;;;;;;1.50;1.40;;;37.80;60.10;;;;;;5061888;28;20425;-78
2021/06/16 10:59:49;;;;;;;1.83;1.73;;;37.90;61.40;;;;;;5095573;28;20409;-79
2021/06/16 11:02:24;;;;;;;1.90;1.80;;;38.20;61.90;;;;;;5061836;28;20444;-79
2021/06/16 11:04:49;;;;;;;3.10;1.73;;;38.30;62.60;;;;;;5060185;28;20932;-79
2021/06/16 11:07:30;;;;;;;1.90;1.80;;;38.40;59.50;;;;;;5058842;28;20437;-78
2021/06/16 11:09:58;;;;;;;1.60;1.50;;;38.60;59.50;;;;;;5050472;28;20285;-78
2021/06/16 11:12:32;;;;;;;2.13;1.93;;;38.60;59.30;;;;;;5092403;28;20766;-79
2021/06/16 11:15:02;;;;;;;1.83;1.73;;;38.70;59.20;;;;;;5060812;28;20421;-77
2021/06/16 11:17:34;;;;;;;1.77;1.67;;;38.80;58.40;;;;;;5059015;28;20495;-79
2021/06/16 11:20:07;;;;;;;3.17;1.80;;;39.10;57.80;;;;;;5058606;28;20455;-78
2021/06/16 11:22:44;;;;;;;2.07;1.97;;;39.10;56.20;;;;;;5093883;28;20429;-78
2021/06/16 11:25:18;;;;;;;1.90;1.80;;;39.20;57.90;;;;;;5061202;28;20424;-79
2021/06/16 11:27:53;;;;;;;1.77;1.67;;;39.60;57.00;;;;;;5061675;28;20821;-79
2021/06/16 11:30:31;;;;;;;2.20;2.00;;;40.00;59.30;;;;;;5058636;28;20992;-79
2021/06/16 11:33:15;;;;;;;2.70;2.50;;;40.20;56.90;;;;;;5056515;28;20428;-79
2021/06/16 11:35:43;;;;;;;1.80;1.70;;;40.40;57.70;;;;;;5058344;28;20409;-78
2021/06/16 11:38:10;;;;;;;2.63;2.43;;;40.20;55.20;;;;;;5058658;28;20441;-78
2021/06/16 11:40:36;;;;;;;2.07;1.90;;;40.00;53.80;;;;;;5059631;28;20457;-79
2021/06/16 11:43:02;;;;;;;2.17;2.07;;;40.10;57.00;;;;;;5060279;28;20421;-81
2021/06/16 11:45:32;;;;;;;2.30;1.60;;;40.20;53.50;;;;;;5058461;28;20234;-79
2021/06/16 11:48:00;;;;;;;1.80;1.70;;;40.10;54.40;;;;;;5059535;28;20460;-80
2021/06/16 11:50:31;;;;;;;2.00;1.90;;;40.30;53.10;;;;;;5060419;28;20496;-79
2021/06/16 11:53:05;;;;;;;1.87;1.77;;;40.50;53.60;;;;;;5059397;28;20972;-79
2021/06/16 11:55:41;;;;;;;1.90;1.80;;;40.60;56.00;;;;;;5059436;28;20767;-77
2021/06/16 11:58:20;;;;;;;1.90;1.80;;;40.50;52.20;;;;;;5058906;28;20452;-80
2021/06/16 12:00:46;;;;;;;1.80;1.70;;;40.80;51.90;;;;;;5057885;28;20399;-79
2021/06/16 12:03:16;;;;;;;1.87;1.77;;;40.90;52.40;;;;;;5057408;28;20479;-79
2021/06/16 12:05:42;;;;;;;3.87;2.40;;;40.80;52.80;;;;;;5057014;28;20316;-79
2021/06/16 12:08:08;;;;;;;1.87;1.77;;;40.90;51.10;;;;;;5056371;28;20984;-78
2021/06/16 12:10:33;;;;;;;2.13;1.77;;;40.80;51.80;;;;;;5057472;28;20431;-79
2021/06/16 12:13:04;;;;;;;1.70;1.60;;;40.60;50.00;;;;;;5057276;28;20238;-77
2021/06/16 12:15:35;;;;;;;1.70;1.60;;;40.80;52.20;;;;;;5056769;28;20237;-79
2021/06/16 12:18:10;;;;;;;1.60;1.50;;;40.90;50.10;;;;;;5056709;28;21006;-79
2021/06/16 12:20:46;;;;;;;2.90;2.47;;;40.50;51.20;;;;;;5056233;28;20423;-79
2021/06/16 12:23:25;;;;;;;2.23;1.87;;;40.30;52.30;;;;;;5059302;28;20819;-79
2021/06/16 12:26:02;;;;;;;1.93;1.83;;;40.10;50.00;;;;;;5059047;28;20400;-80
2021/06/16 12:28:27;;;;;;;1.73;1.63;;;39.70;49.60;;;;;;5057241;28;21007;-78
2021/06/16 12:30:55;;;;;;;1.73;1.63;;;39.70;50.60;;;;;;5058050;28;20449;-78
2021/06/16 12:33:22;;;;;;;1.67;1.40;;;39.80;51.70;;;;;;5057946;28;20171;-79
2021/06/16 12:36:06;;;;;;;1.90;1.70;;;39.70;51.50;;;;;;5059551;28;20467;-77
2021/06/16 12:38:45;;;;;;;1.53;1.40;;;39.30;50.50;;;;;;5058189;28;20417;-78
2021/06/16 12:41:34;;;;;;;2.00;1.80;;;39.70;51.70;;;;;;5059146;28;20488;-78
2021/06/16 12:44:15;;;;;;;1.37;1.27;;;39.80;52.10;;;;;;5058578;28;20399;-79
2021/06/16 12:47:26;;;;;;;1.10;1.00;;;39.80;51.30;;;;;;5057521;28;20433;-78
2021/06/16 12:49:53;;;;;;;1.60;1.50;;;40.10;54.80;;;;;;5051881;28;20590;-78
2021/06/16 12:52:31;;;;;;;2.50;2.23;;;40.10;50.80;;;;;;5057521;28;20520;-78
2021/06/16 12:55:14;;;;;;;2.13;1.93;;;40.10;51.10;;;;;;5055704;28;21001;-78